sensor_id;sensor_type;location;lat;lon;timestamp;P1;durP1;ratioP1;P2;durP2;ratioP2
42864;SDS011;28511;42.680;23.252;2024-01-11T00:00:49;9.80;;;6.00;;
42864;SDS011;28511;42.680;23.252;2024-01-11T00:03:14;6.97;;;4.55;;
42864;SDS011;28511;42.680;23.252;2024-01-11T00:05:40;5.07;;;2.35;;
42864;SDS011;28511;42.680;23.252;2024-01-11T00:08:06;2.28;;;2.13;;
42864;SDS011;28511;42.680;23.252;2024-01-11T00:10:33;2.95;;;2.42;;
42864;SDS011;28511;42.680;23.252;2024-01-11T00:12:59;9.25;;;5.00;;
42864;SDS011;28511;42.680;23.252;2024-01-11T00:15:25;3.63;;;3.35;;
42864;SDS011;28511;42.680;23.252;2024-01-11T00:17:50;5.03;;;3.17;;
42864;SDS011;28511;42.680;23.252;2024-01-11T00:20:15;6.80;;;4.50;;
42864;SDS011;28511;42.680;23.252;2024-01-11T00:22:41;3.67;;;3.42;;
42864;SDS011;28511;42.680;23.252;2024-01-11T00:25:06;5.55;;;2.90;;
42864;SDS011;28511;42.680;23.252;2024-01-11T00:27:33;8.85;;;4.82;;
42864;SDS011;28511;42.680;23.252;2024-01-11T00:29:59;5.80;;;5.30;;
42864;SDS011;28511;42.680;23.252;2024-01-11T00:32:25;5.90;;;3.78;;
42864;SDS011;28511;42.680;23.252;2024-01-11T00:34:50;10.15;;;5.55;;
42864;SDS011;28511;42.680;23.252;2024-01-11T00:37:16;3.92;;;2.78;;
42864;SDS011;28511;42.680;23.252;2024-01-11T00:39:41;3.80;;;3.45;;
42864;SDS011;28511;42.680;23.252;2024-01-11T00:42:06;4.15;;;2.83;;
42864;SDS011;28511;42.680;23.252;2024-01-11T00:44:32;4.63;;;4.18;;
42864;SDS011;28511;42.680;23.252;2024-01-11T00:46:57;4.88;;;4.45;;
42864;SDS011;28511;42.680;23.252;2024-01-11T00:49:23;3.45;;;3.15;;
42864;SDS011;28511;42.680;23.252;2024-01-11T00:51:48;2.92;;;2.22;;
42864;SDS011;28511;42.680;23.252;2024-01-11T00:54:15;2.45;;;2.25;;
42864;SDS011;28511;42.680;23.252;2024-01-11T00:56:41;2.60;;;2.40;;
42864;SDS011;28511;42.680;23.252;2024-01-11T00:59:07;4.55;;;3.88;;
42864;SDS011;28511;42.680;23.252;2024-01-11T01:01:32;1.75;;;1.65;;
42864;SDS011;28511;42.680;23.252;2024-01-11T01:03:58;4.47;;;4.07;;
42864;SDS011;28511;42.680;23.252;2024-01-11T01:06:23;2.97;;;2.47;;
42864;SDS011;28511;42.680;23.252;2024-01-11T01:08:48;2.67;;;2.38;;
42864;SDS011;28511;42.680;23.252;2024-01-11T01:11:14;5.22;;;2.90;;
42864;SDS011;28511;42.680;23.252;2024-01-11T01:13:39;2.78;;;2.58;;
42864;SDS011;28511;42.680;23.252;2024-01-11T01:16:04;3.42;;;3.20;;
42864;SDS011;28511;42.680;23.252;2024-01-11T01:18:30;4.07;;;3.58;;
42864;SDS011;28511;42.680;23.252;2024-01-11T01:20:56;2.20;;;2.03;;
42864;SDS011;28511;42.680;23.252;2024-01-11T01:23:22;1.40;;;1.33;;
42864;SDS011;28511;42.680;23.252;2024-01-11T01:25:48;2.28;;;2.13;;
42864;SDS011;28511;42.680;23.252;2024-01-11T01:28:14;1.98;;;1.83;;
42864;SDS011;28511;42.680;23.252;2024-01-11T01:30:40;3.85;;;2.65;;
42864;SDS011;28511;42.680;23.252;2024-01-11T01:33:05;4.88;;;4.22;;
42864;SDS011;28511;42.680;23.252;2024-01-11T01:35:30;13.30;;;1.52;;
42864;SDS011;28511;42.680;23.252;2024-01-11T01:37:57;1.02;;;1.02;;
42864;SDS011;28511;42.680;23.252;2024-01-11T01:40:22;2.10;;;1.67;;
42864;SDS011;28511;42.680;23.252;2024-01-11T01:42:47;2.17;;;2.05;;
42864;SDS011;28511;42.680;23.252;2024-01-11T01:45:14;2.50;;;2.08;;
42864;SDS011;28511;42.680;23.252;2024-01-11T01:47:40;3.30;;;2.38;;
42864;SDS011;28511;42.680;23.252;2024-01-11T01:50:05;4.47;;;3.00;;
42864;SDS011;28511;42.680;23.252;2024-01-11T01:52:32;1.73;;;1.63;;
42864;SDS011;28511;42.680;23.252;2024-01-11T01:54:58;1.58;;;1.48;;
42864;SDS011;28511;42.680;23.252;2024-01-11T01:57:23;3.22;;;3.00;;
42864;SDS011;28511;42.680;23.252;2024-01-11T01:59:49;2.75;;;1.92;;
42864;SDS011;28511;42.680;23.252;2024-01-11T02:02:16;8.30;;;3.60;;
42864;SDS011;28511;42.680;23.252;2024-01-11T02:04:41;1.15;;;1.15;;
42864;SDS011;28511;42.680;23.252;2024-01-11T02:07:07;3.60;;;3.35;;
42864;SDS011;28511;42.680;23.252;2024-01-11T02:09:33;2.28;;;2.08;;
42864;SDS011;28511;42.680;23.252;2024-01-11T02:11:58;4.90;;;3.53;;
42864;SDS011;28511;42.680;23.252;2024-01-11T02:14:24;1.88;;;1.77;;
42864;SDS011;28511;42.680;23.252;2024-01-11T02:16:50;4.57;;;3.00;;
42864;SDS011;28511;42.680;23.252;2024-01-11T02:19:16;3.50;;;3.22;;
42864;SDS011;28511;42.680;23.252;2024-01-11T02:21:43;6.53;;;3.95;;
42864;SDS011;28511;42.680;23.252;2024-01-11T02:24:11;3.13;;;2.38;;
42864;SDS011;28511;42.680;23.252;2024-01-11T02:26:36;3.42;;;2.30;;
42864;SDS011;28511;42.680;23.252;2024-01-11T02:29:02;3.30;;;1.45;;
42864;SDS011;28511;42.680;23.252;2024-01-11T02:31:27;4.13;;;2.42;;
42864;SDS011;28511;42.680;23.252;2024-01-11T02:33:53;3.13;;;2.30;;
42864;SDS011;28511;42.680;23.252;2024-01-11T02:36:19;3.53;;;2.63;;
42864;SDS011;28511;42.680;23.252;2024-01-11T02:38:45;2.83;;;2.63;;
42864;SDS011;28511;42.680;23.252;2024-01-11T02:41:11;2.47;;;2.28;;
42864;SDS011;28511;42.680;23.252;2024-01-11T02:43:36;8.57;;;4.28;;
42864;SDS011;28511;42.680;23.252;2024-01-11T02:46:02;2.78;;;2.58;;
42864;SDS011;28511;42.680;23.252;2024-01-11T02:48:28;4.10;;;3.70;;
42864;SDS011;28511;42.680;23.252;2024-01-11T02:50:54;2.92;;;2.25;;
42864;SDS011;28511;42.680;23.252;2024-01-11T02:53:19;2.83;;;2.70;;
42864;SDS011;28511;42.680;23.252;2024-01-11T02:55:45;3.35;;;3.05;;
42864;SDS011;28511;42.680;23.252;2024-01-11T02:58:10;2.72;;;1.90;;
42864;SDS011;28511;42.680;23.252;2024-01-11T03:00:35;2.00;;;1.90;;
42864;SDS011;28511;42.680;23.252;2024-01-11T03:03:01;7.55;;;1.52;;
42864;SDS011;28511;42.680;23.252;2024-01-11T03:05:26;3.35;;;2.92;;
42864;SDS011;28511;42.680;23.252;2024-01-11T03:07:52;12.65;;;7.15;;
42864;SDS011;28511;42.680;23.252;2024-01-11T03:10:17;7.50;;;3.28;;
42864;SDS011;28511;42.680;23.252;2024-01-11T03:12:43;3.45;;;3.15;;
42864;SDS011;28511;42.680;23.252;2024-01-11T03:15:08;4.53;;;4.07;;
42864;SDS011;28511;42.680;23.252;2024-01-11T03:17:34;3.80;;;2.80;;
42864;SDS011;28511;42.680;23.252;2024-01-11T03:19:59;3.40;;;3.17;;
42864;SDS011;28511;42.680;23.252;2024-01-11T03:22:24;12.18;;;2.33;;
42864;SDS011;28511;42.680;23.252;2024-01-11T03:24:50;7.03;;;3.72;;
42864;SDS011;28511;42.680;23.252;2024-01-11T03:27:15;7.25;;;4.32;;
42864;SDS011;28511;42.680;23.252;2024-01-11T03:29:40;9.45;;;4.60;;
42864;SDS011;28511;42.680;23.252;2024-01-11T03:32:06;3.03;;;2.83;;
42864;SDS011;28511;42.680;23.252;2024-01-11T03:34:31;19.38;;;6.55;;
42864;SDS011;28511;42.680;23.252;2024-01-11T03:36:58;2.88;;;2.58;;
42864;SDS011;28511;42.680;23.252;2024-01-11T03:39:27;8.20;;;7.32;;
42864;SDS011;28511;42.680;23.252;2024-01-11T03:41:53;6.13;;;4.53;;
42864;SDS011;28511;42.680;23.252;2024-01-11T03:44:18;5.05;;;4.65;;
42864;SDS011;28511;42.680;23.252;2024-01-11T03:46:43;4.40;;;3.45;;
42864;SDS011;28511;42.680;23.252;2024-01-11T03:49:09;4.50;;;4.10;;
42864;SDS011;28511;42.680;23.252;2024-01-11T03:51:35;7.53;;;3.83;;
42864;SDS011;28511;42.680;23.252;2024-01-11T03:54:01;4.15;;;3.78;;
42864;SDS011;28511;42.680;23.252;2024-01-11T03:56:26;3.15;;;2.90;;
42864;SDS011;28511;42.680;23.252;2024-01-11T03:58:51;3.28;;;2.95;;
42864;SDS011;28511;42.680;23.252;2024-01-11T04:01:17;1.33;;;1.23;;
42864;SDS011;28511;42.680;23.252;2024-01-11T04:03:43;6.57;;;3.80;;
42864;SDS011;28511;42.680;23.252;2024-01-11T04:06:08;3.75;;;3.03;;
42864;SDS011;28511;42.680;23.252;2024-01-11T04:08:33;3.67;;;3.38;;
42864;SDS011;28511;42.680;23.252;2024-01-11T04:11:01;2.28;;;2.17;;
42864;SDS011;28511;42.680;23.252;2024-01-11T04:13:27;7.65;;;5.50;;
42864;SDS011;28511;42.680;23.252;2024-01-11T04:15:52;4.25;;;2.60;;
42864;SDS011;28511;42.680;23.252;2024-01-11T04:18:17;6.13;;;5.63;;
42864;SDS011;28511;42.680;23.252;2024-01-11T04:20:42;4.47;;;3.15;;
42864;SDS011;28511;42.680;23.252;2024-01-11T04:23:08;0.45;;;0.45;;
42864;SDS011;28511;42.680;23.252;2024-01-11T04:25:33;2.92;;;2.70;;
42864;SDS011;28511;42.680;23.252;2024-01-11T04:27:58;2.17;;;2.08;;
42864;SDS011;28511;42.680;23.252;2024-01-11T04:30:24;14.10;;;7.75;;
42864;SDS011;28511;42.680;23.252;2024-01-11T04:32:49;1.13;;;1.08;;
42864;SDS011;28511;42.680;23.252;2024-01-11T04:35:14;8.40;;;4.72;;
42864;SDS011;28511;42.680;23.252;2024-01-11T04:37:39;5.05;;;3.00;;
42864;SDS011;28511;42.680;23.252;2024-01-11T04:40:06;3.20;;;1.27;;
42864;SDS011;28511;42.680;23.252;2024-01-11T04:42:32;2.15;;;2.05;;
42864;SDS011;28511;42.680;23.252;2024-01-11T04:44:57;2.78;;;2.53;;
42864;SDS011;28511;42.680;23.252;2024-01-11T04:47:22;1.15;;;1.15;;
42864;SDS011;28511;42.680;23.252;2024-01-11T04:49:49;3.88;;;3.65;;
42864;SDS011;28511;42.680;23.252;2024-01-11T04:52:14;2.42;;;2.33;;
42864;SDS011;28511;42.680;23.252;2024-01-11T04:54:39;1.33;;;1.25;;
42864;SDS011;28511;42.680;23.252;2024-01-11T04:57:05;2.30;;;2.15;;
42864;SDS011;28511;42.680;23.252;2024-01-11T04:59:30;11.77;;;6.38;;
42864;SDS011;28511;42.680;23.252;2024-01-11T05:01:55;11.98;;;7.75;;
42864;SDS011;28511;42.680;23.252;2024-01-11T05:04:22;3.65;;;3.38;;
42864;SDS011;28511;42.680;23.252;2024-01-11T05:06:48;1.77;;;1.67;;
42864;SDS011;28511;42.680;23.252;2024-01-11T05:09:15;13.10;;;9.10;;
42864;SDS011;28511;42.680;23.252;2024-01-11T05:11:40;4.38;;;3.30;;
42864;SDS011;28511;42.680;23.252;2024-01-11T05:14:06;2.55;;;2.30;;
42864;SDS011;28511;42.680;23.252;2024-01-11T05:16:31;12.48;;;7.78;;
42864;SDS011;28511;42.680;23.252;2024-01-11T05:18:57;2.47;;;2.28;;
42864;SDS011;28511;42.680;23.252;2024-01-11T05:21:22;4.97;;;4.68;;
42864;SDS011;28511;42.680;23.252;2024-01-11T05:23:48;24.63;;;6.22;;
42864;SDS011;28511;42.680;23.252;2024-01-11T05:26:16;5.03;;;2.25;;
42864;SDS011;28511;42.680;23.252;2024-01-11T05:28:42;1.30;;;1.17;;
42864;SDS011;28511;42.680;23.252;2024-01-11T05:31:08;1.83;;;1.77;;
42864;SDS011;28511;42.680;23.252;2024-01-11T05:33:34;3.63;;;3.33;;
42864;SDS011;28511;42.680;23.252;2024-01-11T05:35:59;1.50;;;1.48;;
42864;SDS011;28511;42.680;23.252;2024-01-11T05:38:24;3.10;;;2.45;;
42864;SDS011;28511;42.680;23.252;2024-01-11T05:40:49;6.25;;;2.88;;
42864;SDS011;28511;42.680;23.252;2024-01-11T05:43:15;6.05;;;4.03;;
42864;SDS011;28511;42.680;23.252;2024-01-11T05:45:40;5.28;;;4.82;;
42864;SDS011;28511;42.680;23.252;2024-01-11T05:48:05;3.65;;;3.45;;
42864;SDS011;28511;42.680;23.252;2024-01-11T05:50:32;16.42;;;4.47;;
42864;SDS011;28511;42.680;23.252;2024-01-11T05:52:58;11.50;;;2.67;;
42864;SDS011;28511;42.680;23.252;2024-01-11T05:55:24;7.47;;;6.05;;
42864;SDS011;28511;42.680;23.252;2024-01-11T05:57:52;3.35;;;3.15;;
42864;SDS011;28511;42.680;23.252;2024-01-11T06:00:18;5.72;;;4.75;;
42864;SDS011;28511;42.680;23.252;2024-01-11T06:02:43;1.95;;;1.85;;
42864;SDS011;28511;42.680;23.252;2024-01-11T06:05:09;2.75;;;2.53;;
42864;SDS011;28511;42.680;23.252;2024-01-11T06:07:35;2.97;;;2.15;;
42864;SDS011;28511;42.680;23.252;2024-01-11T06:10:03;3.20;;;2.63;;
42864;SDS011;28511;42.680;23.252;2024-01-11T06:12:30;4.28;;;3.70;;
42864;SDS011;28511;42.680;23.252;2024-01-11T06:14:56;1.27;;;1.25;;
42864;SDS011;28511;42.680;23.252;2024-01-11T06:17:21;2.75;;;2.58;;
42864;SDS011;28511;42.680;23.252;2024-01-11T06:19:47;3.33;;;3.05;;
42864;SDS011;28511;42.680;23.252;2024-01-11T06:22:15;3.42;;;3.20;;
42864;SDS011;28511;42.680;23.252;2024-01-11T06:24:40;2.25;;;2.13;;
42864;SDS011;28511;42.680;23.252;2024-01-11T06:27:05;3.97;;;3.30;;
42864;SDS011;28511;42.680;23.252;2024-01-11T06:29:30;2.10;;;1.95;;
42864;SDS011;28511;42.680;23.252;2024-01-11T06:31:56;5.38;;;4.93;;
42864;SDS011;28511;42.680;23.252;2024-01-11T06:34:21;14.55;;;8.52;;
42864;SDS011;28511;42.680;23.252;2024-01-11T06:36:46;9.07;;;4.78;;
42864;SDS011;28511;42.680;23.252;2024-01-11T06:39:12;4.25;;;3.92;;
42864;SDS011;28511;42.680;23.252;2024-01-11T06:41:37;27.80;;;7.40;;
42864;SDS011;28511;42.680;23.252;2024-01-11T06:44:03;5.50;;;5.00;;
42864;SDS011;28511;42.680;23.252;2024-01-11T06:46:28;12.93;;;7.15;;
42864;SDS011;28511;42.680;23.252;2024-01-11T06:48:54;13.75;;;9.80;;
42864;SDS011;28511;42.680;23.252;2024-01-11T06:51:22;22.13;;;11.27;;
42864;SDS011;28511;42.680;23.252;2024-01-11T06:53:48;14.90;;;10.50;;
42864;SDS011;28511;42.680;23.252;2024-01-11T06:56:16;16.13;;;10.88;;
42864;SDS011;28511;42.680;23.252;2024-01-11T06:58:42;12.25;;;8.07;;
42864;SDS011;28511;42.680;23.252;2024-01-11T07:01:07;23.95;;;9.95;;
42864;SDS011;28511;42.680;23.252;2024-01-11T07:03:34;9.45;;;8.32;;
42864;SDS011;28511;42.680;23.252;2024-01-11T07:05:59;24.50;;;8.45;;
42864;SDS011;28511;42.680;23.252;2024-01-11T07:08:25;22.05;;;8.23;;
42864;SDS011;28511;42.680;23.252;2024-01-11T07:10:50;16.80;;;10.63;;
42864;SDS011;28511;42.680;23.252;2024-01-11T07:13:15;13.35;;;9.20;;
42864;SDS011;28511;42.680;23.252;2024-01-11T07:15:42;8.20;;;5.72;;
42864;SDS011;28511;42.680;23.252;2024-01-11T07:18:07;6.60;;;5.57;;
42864;SDS011;28511;42.680;23.252;2024-01-11T07:20:32;12.38;;;6.60;;
42864;SDS011;28511;42.680;23.252;2024-01-11T07:22:59;9.75;;;5.82;;
42864;SDS011;28511;42.680;23.252;2024-01-11T07:25:25;7.90;;;6.22;;
42864;SDS011;28511;42.680;23.252;2024-01-11T07:27:51;17.75;;;9.48;;
42864;SDS011;28511;42.680;23.252;2024-01-11T07:30:17;14.57;;;6.38;;
42864;SDS011;28511;42.680;23.252;2024-01-11T07:32:43;6.75;;;6.15;;
42864;SDS011;28511;42.680;23.252;2024-01-11T07:35:10;13.20;;;6.68;;
42864;SDS011;28511;42.680;23.252;2024-01-11T07:37:38;14.68;;;7.07;;
42864;SDS011;28511;42.680;23.252;2024-01-11T07:40:04;8.13;;;5.70;;
42864;SDS011;28511;42.680;23.252;2024-01-11T07:42:36;8.15;;;6.38;;
42864;SDS011;28511;42.680;23.252;2024-01-11T07:45:02;16.13;;;7.32;;
42864;SDS011;28511;42.680;23.252;2024-01-11T07:47:27;13.63;;;8.20;;
42864;SDS011;28511;42.680;23.252;2024-01-11T07:49:54;8.00;;;4.55;;
42864;SDS011;28511;42.680;23.252;2024-01-11T07:52:19;9.20;;;5.57;;
42864;SDS011;28511;42.680;23.252;2024-01-11T07:54:46;5.90;;;5.28;;
42864;SDS011;28511;42.680;23.252;2024-01-11T07:57:11;12.18;;;5.82;;
42864;SDS011;28511;42.680;23.252;2024-01-11T07:59:37;7.30;;;6.60;;
42864;SDS011;28511;42.680;23.252;2024-01-11T08:02:03;18.25;;;11.10;;
42864;SDS011;28511;42.680;23.252;2024-01-11T08:04:28;12.07;;;6.97;;
42864;SDS011;28511;42.680;23.252;2024-01-11T08:06:54;14.48;;;10.00;;
42864;SDS011;28511;42.680;23.252;2024-01-11T08:09:20;14.45;;;7.63;;
42864;SDS011;28511;42.680;23.252;2024-01-11T08:11:54;25.85;;;11.98;;
42864;SDS011;28511;42.680;23.252;2024-01-11T08:14:20;16.98;;;7.25;;
42864;SDS011;28511;42.680;23.252;2024-01-11T08:16:45;17.08;;;6.75;;
42864;SDS011;28511;42.680;23.252;2024-01-11T08:19:10;12.13;;;5.97;;
42864;SDS011;28511;42.680;23.252;2024-01-11T08:21:39;10.15;;;6.10;;
42864;SDS011;28511;42.680;23.252;2024-01-11T08:24:07;5.65;;;4.65;;
42864;SDS011;28511;42.680;23.252;2024-01-11T08:26:33;15.85;;;5.72;;
42864;SDS011;28511;42.680;23.252;2024-01-11T08:28:58;13.55;;;7.55;;
42864;SDS011;28511;42.680;23.252;2024-01-11T08:31:26;9.98;;;7.35;;
42864;SDS011;28511;42.680;23.252;2024-01-11T08:33:53;11.30;;;8.13;;
42864;SDS011;28511;42.680;23.252;2024-01-11T08:36:20;11.60;;;8.57;;
42864;SDS011;28511;42.680;23.252;2024-01-11T08:38:45;9.93;;;8.93;;
42864;SDS011;28511;42.680;23.252;2024-01-11T08:41:10;12.13;;;5.65;;
42864;SDS011;28511;42.680;23.252;2024-01-11T08:43:37;12.35;;;7.22;;
42864;SDS011;28511;42.680;23.252;2024-01-11T08:46:04;24.45;;;8.88;;
42864;SDS011;28511;42.680;23.252;2024-01-11T08:48:29;15.95;;;8.77;;
42864;SDS011;28511;42.680;23.252;2024-01-11T08:50:54;12.13;;;7.40;;
42864;SDS011;28511;42.680;23.252;2024-01-11T08:53:20;16.58;;;8.45;;
42864;SDS011;28511;42.680;23.252;2024-01-11T08:55:45;15.45;;;6.88;;
42864;SDS011;28511;42.680;23.252;2024-01-11T08:58:10;10.27;;;5.60;;
42864;SDS011;28511;42.680;23.252;2024-01-11T09:00:36;14.93;;;7.07;;
42864;SDS011;28511;42.680;23.252;2024-01-11T09:03:02;22.33;;;9.50;;
42864;SDS011;28511;42.680;23.252;2024-01-11T09:05:28;11.43;;;6.32;;
42864;SDS011;28511;42.680;23.252;2024-01-11T09:07:53;10.55;;;8.18;;
42864;SDS011;28511;42.680;23.252;2024-01-11T09:10:20;11.55;;;9.43;;
42864;SDS011;28511;42.680;23.252;2024-01-11T09:12:46;8.60;;;6.40;;
42864;SDS011;28511;42.680;23.252;2024-01-11T09:15:12;9.85;;;6.13;;
42864;SDS011;28511;42.680;23.252;2024-01-11T09:17:38;14.60;;;8.43;;
42864;SDS011;28511;42.680;23.252;2024-01-11T09:20:04;10.95;;;7.35;;
42864;SDS011;28511;42.680;23.252;2024-01-11T09:22:29;18.67;;;10.70;;
42864;SDS011;28511;42.680;23.252;2024-01-11T09:24:56;19.88;;;10.07;;
42864;SDS011;28511;42.680;23.252;2024-01-11T09:27:22;14.45;;;9.20;;
42864;SDS011;28511;42.680;23.252;2024-01-11T09:29:47;12.95;;;7.90;;
42864;SDS011;28511;42.680;23.252;2024-01-11T09:32:12;24.33;;;10.85;;
42864;SDS011;28511;42.680;23.252;2024-01-11T09:34:38;15.02;;;9.70;;
42864;SDS011;28511;42.680;23.252;2024-01-11T09:37:03;20.13;;;10.13;;
42864;SDS011;28511;42.680;23.252;2024-01-11T09:39:29;13.50;;;9.90;;
42864;SDS011;28511;42.680;23.252;2024-01-11T09:41:58;19.15;;;9.65;;
42864;SDS011;28511;42.680;23.252;2024-01-11T09:44:24;16.05;;;9.27;;
42864;SDS011;28511;42.680;23.252;2024-01-11T09:46:49;11.43;;;9.48;;
42864;SDS011;28511;42.680;23.252;2024-01-11T09:49:15;21.65;;;11.38;;
42864;SDS011;28511;42.680;23.252;2024-01-11T09:51:42;14.43;;;9.00;;
42864;SDS011;28511;42.680;23.252;2024-01-11T09:54:09;15.93;;;8.52;;
42864;SDS011;28511;42.680;23.252;2024-01-11T09:56:35;16.15;;;7.88;;
42864;SDS011;28511;42.680;23.252;2024-01-11T09:59:01;26.42;;;9.85;;
42864;SDS011;28511;42.680;23.252;2024-01-11T10:01:26;19.17;;;8.77;;
42864;SDS011;28511;42.680;23.252;2024-01-11T10:03:53;19.30;;;7.32;;
42864;SDS011;28511;42.680;23.252;2024-01-11T10:06:18;21.48;;;10.70;;
42864;SDS011;28511;42.680;23.252;2024-01-11T10:08:44;14.63;;;9.77;;
42864;SDS011;28511;42.680;23.252;2024-01-11T10:11:12;18.63;;;11.27;;
42864;SDS011;28511;42.680;23.252;2024-01-11T10:13:37;16.17;;;7.85;;
42864;SDS011;28511;42.680;23.252;2024-01-11T10:18:35;13.90;;;9.38;;
42864;SDS011;28511;42.680;23.252;2024-01-11T10:21:01;17.80;;;7.38;;
42864;SDS011;28511;42.680;23.252;2024-01-11T10:23:26;9.77;;;7.13;;
42864;SDS011;28511;42.680;23.252;2024-01-11T10:25:57;13.80;;;8.50;;
42864;SDS011;28511;42.680;23.252;2024-01-11T10:28:28;14.27;;;7.38;;
42864;SDS011;28511;42.680;23.252;2024-01-11T10:30:54;13.57;;;8.82;;
42864;SDS011;28511;42.680;23.252;2024-01-11T10:33:19;10.02;;;6.30;;
42864;SDS011;28511;42.680;23.252;2024-01-11T10:35:46;13.02;;;7.90;;
42864;SDS011;28511;42.680;23.252;2024-01-11T10:38:11;11.60;;;4.40;;
42864;SDS011;28511;42.680;23.252;2024-01-11T10:40:37;15.02;;;6.18;;
42864;SDS011;28511;42.680;23.252;2024-01-11T10:43:02;7.93;;;5.88;;
42864;SDS011;28511;42.680;23.252;2024-01-11T10:45:29;8.88;;;6.43;;
42864;SDS011;28511;42.680;23.252;2024-01-11T10:47:56;6.53;;;5.28;;
42864;SDS011;28511;42.680;23.252;2024-01-11T10:55:18;13.23;;;6.72;;
42864;SDS011;28511;42.680;23.252;2024-01-11T10:57:45;12.63;;;6.15;;
42864;SDS011;28511;42.680;23.252;2024-01-11T11:00:17;13.15;;;4.68;;
42864;SDS011;28511;42.680;23.252;2024-01-11T11:02:45;11.57;;;4.03;;
42864;SDS011;28511;42.680;23.252;2024-01-11T11:05:12;12.00;;;6.38;;
42864;SDS011;28511;42.680;23.252;2024-01-11T11:07:38;12.15;;;6.63;;
42864;SDS011;28511;42.680;23.252;2024-01-11T11:10:04;10.38;;;4.32;;
42864;SDS011;28511;42.680;23.252;2024-01-11T11:12:31;5.97;;;5.43;;
42864;SDS011;28511;42.680;23.252;2024-01-11T11:14:57;6.00;;;4.05;;
42864;SDS011;28511;42.680;23.252;2024-01-11T11:17:23;8.05;;;3.85;;
42864;SDS011;28511;42.680;23.252;2024-01-11T11:19:49;5.28;;;3.80;;
42864;SDS011;28511;42.680;23.252;2024-01-11T11:22:14;7.95;;;5.35;;
42864;SDS011;28511;42.680;23.252;2024-01-11T11:24:40;10.13;;;4.20;;
42864;SDS011;28511;42.680;23.252;2024-01-11T11:27:05;8.07;;;4.82;;
42864;SDS011;28511;42.680;23.252;2024-01-11T11:29:32;4.70;;;4.32;;
42864;SDS011;28511;42.680;23.252;2024-01-11T11:31:57;5.57;;;4.10;;
42864;SDS011;28511;42.680;23.252;2024-01-11T11:34:40;7.93;;;3.38;;
42864;SDS011;28511;42.680;23.252;2024-01-11T11:37:06;6.45;;;5.05;;
42864;SDS011;28511;42.680;23.252;2024-01-11T11:39:31;3.83;;;2.90;;
42864;SDS011;28511;42.680;23.252;2024-01-11T11:41:57;9.15;;;5.35;;
42864;SDS011;28511;42.680;23.252;2024-01-11T11:44:24;5.78;;;2.47;;
42864;SDS011;28511;42.680;23.252;2024-01-11T11:46:49;5.80;;;4.45;;
42864;SDS011;28511;42.680;23.252;2024-01-11T11:49:15;3.70;;;2.10;;
42864;SDS011;28511;42.680;23.252;2024-01-11T11:51:43;6.72;;;3.75;;
42864;SDS011;28511;42.680;23.252;2024-01-11T11:54:08;4.85;;;3.65;;
42864;SDS011;28511;42.680;23.252;2024-01-11T11:56:39;4.30;;;2.70;;
42864;SDS011;28511;42.680;23.252;2024-01-11T11:59:06;3.88;;;3.13;;
42864;SDS011;28511;42.680;23.252;2024-01-11T12:01:33;3.10;;;2.40;;
42864;SDS011;28511;42.680;23.252;2024-01-11T12:04:00;2.38;;;2.20;;
42864;SDS011;28511;42.680;23.252;2024-01-11T12:06:27;9.13;;;3.40;;
42864;SDS011;28511;42.680;23.252;2024-01-11T12:08:54;4.60;;;3.53;;
42864;SDS011;28511;42.680;23.252;2024-01-11T12:11:20;3.70;;;3.28;;
42864;SDS011;28511;42.680;23.252;2024-01-11T12:13:46;2.20;;;2.00;;
42864;SDS011;28511;42.680;23.252;2024-01-11T12:16:13;1.92;;;1.45;;
42864;SDS011;28511;42.680;23.252;2024-01-11T12:18:40;2.92;;;2.72;;
42864;SDS011;28511;42.680;23.252;2024-01-11T12:21:05;4.05;;;1.08;;
42864;SDS011;28511;42.680;23.252;2024-01-11T12:23:31;1.77;;;1.67;;
42864;SDS011;28511;42.680;23.252;2024-01-11T12:26:00;0.60;;;0.60;;
42864;SDS011;28511;42.680;23.252;2024-01-11T12:28:26;1.83;;;1.73;;
42864;SDS011;28511;42.680;23.252;2024-01-11T12:30:51;1.17;;;1.05;;
42864;SDS011;28511;42.680;23.252;2024-01-11T12:33:17;2.00;;;1.90;;
42864;SDS011;28511;42.680;23.252;2024-01-11T12:35:42;1.08;;;0.88;;
42864;SDS011;28511;42.680;23.252;2024-01-11T12:38:08;1.35;;;1.25;;
42864;SDS011;28511;42.680;23.252;2024-01-11T12:40:36;3.53;;;1.40;;
42864;SDS011;28511;42.680;23.252;2024-01-11T12:43:05;1.17;;;1.10;;
42864;SDS011;28511;42.680;23.252;2024-01-11T12:45:39;13.45;;;1.48;;
42864;SDS011;28511;42.680;23.252;2024-01-11T12:48:08;5.18;;;3.00;;
42864;SDS011;28511;42.680;23.252;2024-01-11T12:50:34;0.43;;;0.43;;
42864;SDS011;28511;42.680;23.252;2024-01-11T12:53:16;1.15;;;0.88;;
42864;SDS011;28511;42.680;23.252;2024-01-11T12:55:44;1.75;;;1.58;;
42864;SDS011;28511;42.680;23.252;2024-01-11T12:58:11;0.90;;;0.90;;
42864;SDS011;28511;42.680;23.252;2024-01-11T13:00:37;3.30;;;2.38;;
42864;SDS011;28511;42.680;23.252;2024-01-11T13:03:02;2.05;;;1.83;;
42864;SDS011;28511;42.680;23.252;2024-01-11T13:05:28;0.80;;;0.80;;
42864;SDS011;28511;42.680;23.252;2024-01-11T13:07:55;0.93;;;0.93;;
42864;SDS011;28511;42.680;23.252;2024-01-11T13:10:21;1.50;;;1.40;;
42864;SDS011;28511;42.680;23.252;2024-01-11T13:12:49;2.08;;;1.02;;
42864;SDS011;28511;42.680;23.252;2024-01-11T13:15:17;1.73;;;1.20;;
42864;SDS011;28511;42.680;23.252;2024-01-11T13:17:42;1.98;;;1.10;;
42864;SDS011;28511;42.680;23.252;2024-01-11T13:20:08;0.73;;;0.73;;
42864;SDS011;28511;42.680;23.252;2024-01-11T13:22:33;6.53;;;0.75;;
42864;SDS011;28511;42.680;23.252;2024-01-11T13:24:58;4.43;;;1.23;;
42864;SDS011;28511;42.680;23.252;2024-01-11T13:27:24;2.08;;;1.15;;
42864;SDS011;28511;42.680;23.252;2024-01-11T13:29:49;2.75;;;1.63;;
42864;SDS011;28511;42.680;23.252;2024-01-11T13:32:14;2.67;;;2.00;;
42864;SDS011;28511;42.680;23.252;2024-01-11T13:34:40;9.07;;;1.15;;
42864;SDS011;28511;42.680;23.252;2024-01-11T13:37:06;1.67;;;1.52;;
42864;SDS011;28511;42.680;23.252;2024-01-11T13:39:31;0.95;;;0.95;;
42864;SDS011;28511;42.680;23.252;2024-01-11T13:41:57;2.42;;;2.22;;
42864;SDS011;28511;42.680;23.252;2024-01-11T13:44:22;0.98;;;0.98;;
42864;SDS011;28511;42.680;23.252;2024-01-11T13:46:48;8.00;;;1.40;;
42864;SDS011;28511;42.680;23.252;2024-01-11T13:49:13;0.90;;;0.70;;
42864;SDS011;28511;42.680;23.252;2024-01-11T13:51:39;1.75;;;1.63;;
42864;SDS011;28511;42.680;23.252;2024-01-11T13:54:04;2.08;;;1.98;;
42864;SDS011;28511;42.680;23.252;2024-01-11T13:56:31;2.25;;;1.88;;
42864;SDS011;28511;42.680;23.252;2024-01-11T13:58:57;6.13;;;1.60;;
42864;SDS011;28511;42.680;23.252;2024-01-11T14:01:22;2.97;;;2.10;;
42864;SDS011;28511;42.680;23.252;2024-01-11T14:03:47;1.75;;;1.20;;
42864;SDS011;28511;42.680;23.252;2024-01-11T14:06:13;0.93;;;0.93;;
42864;SDS011;28511;42.680;23.252;2024-01-11T14:08:38;1.90;;;1.52;;
42864;SDS011;28511;42.680;23.252;2024-01-11T14:11:04;1.35;;;1.13;;
42864;SDS011;28511;42.680;23.252;2024-01-11T14:13:29;1.60;;;1.20;;
42864;SDS011;28511;42.680;23.252;2024-01-11T14:15:55;0.55;;;0.55;;
42864;SDS011;28511;42.680;23.252;2024-01-11T14:18:21;2.95;;;1.60;;
42864;SDS011;28511;42.680;23.252;2024-01-11T14:20:47;2.00;;;0.93;;
42864;SDS011;28511;42.680;23.252;2024-01-11T14:23:13;1.33;;;1.25;;
42864;SDS011;28511;42.680;23.252;2024-01-11T14:25:38;3.35;;;2.30;;
42864;SDS011;28511;42.680;23.252;2024-01-11T14:28:03;1.10;;;1.08;;
42864;SDS011;28511;42.680;23.252;2024-01-11T14:30:30;1.13;;;1.13;;